createdAt,value
2019-02-11T00:01:31.015Z,5.80
2019-02-11T00:04:00.288Z,5.80
2019-02-11T00:06:29.291Z,5.80
2019-02-11T00:08:58.067Z,5.80
2019-02-11T00:11:27.415Z,5.70
2019-02-11T00:13:56.163Z,5.60
2019-02-11T00:16:25.018Z,5.60
2019-02-11T00:18:54.248Z,5.50
2019-02-11T00:21:23.324Z,5.50
2019-02-11T00:23:52.107Z,5.40
2019-02-11T00:26:20.873Z,5.40
2019-02-11T00:28:49.655Z,5.30
2019-02-11T00:31:18.676Z,5.30
2019-02-11T00:33:48.011Z,5.30
2019-02-11T00:36:16.751Z,5.30
2019-02-11T00:38:45.763Z,5.30
2019-02-11T00:41:14.816Z,5.30
2019-02-11T00:43:44.084Z,5.20
2019-02-11T00:46:13.102Z,5.20
2019-02-11T00:48:42.106Z,5.20
2019-02-11T00:51:11.130Z,5.10
2019-02-11T00:53:39.904Z,5.10
2019-02-11T00:56:08.671Z,5.10
2019-02-11T00:58:37.715Z,5.10
2019-02-11T01:01:06.712Z,5.10
2019-02-11T01:03:35.483Z,5.10
2019-02-11T01:06:04.579Z,5.00
2019-02-11T01:08:33.671Z,5.00
2019-02-11T01:11:02.647Z,5.00
2019-02-11T01:13:31.483Z,4.90
2019-02-11T01:16:00.248Z,4.90
2019-02-11T01:18:29.227Z,4.90
2019-02-11T01:20:57.988Z,4.80
2019-02-11T01:23:27.323Z,4.80
2019-02-11T01:25:56.328Z,4.80
2019-02-11T01:28:25.086Z,4.70
2019-02-11T01:30:54.175Z,4.70
2019-02-11T01:33:23.236Z,4.60
2019-02-11T01:35:52.118Z,4.70
2019-02-11T01:38:21.104Z,4.70
2019-02-11T01:40:50.107Z,4.70
2019-02-11T01:43:18.951Z,4.70
2019-02-11T01:45:47.935Z,4.70
2019-02-11T01:48:16.921Z,4.70
2019-02-11T01:50:45.945Z,4.70
2019-02-11T01:53:14.969Z,4.70
2019-02-11T01:55:43.747Z,4.70
2019-02-11T01:58:13.161Z,4.70
2019-02-11T02:00:42.474Z,4.70
2019-02-11T02:03:11.819Z,4.70
2019-02-11T02:05:40.879Z,4.70
2019-02-11T02:08:09.881Z,4.60
2019-02-11T02:10:39.156Z,4.70
2019-02-11T02:13:08.463Z,4.60
2019-02-11T02:15:37.542Z,4.60
2019-02-11T02:18:06.317Z,4.60
2019-02-11T02:20:35.087Z,4.60
2019-02-11T02:23:03.855Z,4.60
2019-02-11T02:25:32.873Z,4.60
2019-02-11T02:28:02.146Z,4.60
2019-02-11T02:30:31.234Z,4.60
2019-02-11T02:33:00.114Z,4.60
2019-02-11T02:35:29.116Z,4.60
2019-02-11T02:37:58.273Z,4.60
2019-02-11T02:40:27.125Z,4.60
2019-02-11T02:42:56.212Z,4.50
2019-02-11T02:45:25.557Z,4.50
2019-02-11T02:47:54.314Z,4.50
2019-02-11T02:50:23.662Z,4.50
2019-02-11T02:52:52.486Z,4.40
2019-02-11T02:55:21.535Z,4.40
2019-02-11T02:57:50.379Z,4.40
2019-02-11T03:00:19.216Z,4.40
2019-02-11T03:02:48.255Z,4.40
2019-02-11T03:05:17.016Z,4.40
2019-02-11T03:07:45.844Z,4.30
2019-02-11T03:10:14.980Z,4.40
2019-02-11T03:12:43.934Z,4.30
2019-02-11T03:15:12.803Z,4.30
2019-02-11T03:17:42.111Z,4.30
2019-02-11T03:20:11.548Z,4.30
2019-02-11T03:22:40.814Z,4.30
2019-02-11T03:25:10.013Z,4.20
2019-02-11T03:27:38.799Z,4.30
2019-02-11T03:30:07.885Z,4.30
2019-02-11T03:32:37.027Z,4.20
2019-02-11T03:35:05.992Z,4.30
2019-02-11T03:37:34.747Z,4.20
2019-02-11T03:40:03.743Z,4.30
2019-02-11T03:42:32.537Z,4.20
2019-02-11T03:45:01.321Z,4.20
2019-02-11T03:47:30.405Z,4.20
2019-02-11T03:49:59.657Z,4.20
2019-02-11T03:52:28.560Z,4.20
2019-02-11T03:54:58.118Z,4.20
2019-02-11T03:57:27.305Z,4.20
2019-02-11T03:59:56.118Z,4.20
2019-02-11T04:02:24.939Z,4.20
2019-02-11T04:04:53.703Z,4.20
2019-02-11T04:07:22.736Z,4.20
2019-02-11T04:09:51.503Z,4.20
2019-02-11T04:12:20.394Z,4.20
2019-02-11T04:14:49.625Z,4.20
2019-02-11T04:17:18.479Z,4.20
2019-02-11T04:19:48.215Z,4.20
2019-02-11T04:22:17.059Z,4.20
2019-02-11T04:24:46.395Z,4.10
2019-02-11T04:27:15.156Z,4.10
2019-02-11T04:29:44.197Z,4.10
2019-02-11T04:32:13.827Z,4.10
2019-02-11T04:34:42.614Z,4.10
2019-02-11T04:37:11.391Z,4.10
2019-02-11T04:39:40.164Z,4.10
2019-02-11T04:42:09.184Z,4.10
2019-02-11T04:44:38.192Z,4.10
2019-02-11T04:47:07.692Z,4.10
2019-02-11T04:49:36.771Z,4.10
2019-02-11T04:52:05.651Z,4.20
2019-02-11T04:54:34.408Z,4.20
2019-02-11T04:57:03.173Z,4.10
2019-02-11T04:59:32.467Z,4.10
2019-02-11T05:02:01.495Z,4.10
2019-02-11T05:04:30.367Z,4.10
2019-02-11T05:06:59.436Z,4.00
2019-02-11T05:09:28.512Z,4.00
2019-02-11T05:11:57.290Z,4.10
2019-02-11T05:14:26.297Z,4.10
2019-02-11T05:16:55.571Z,4.10
2019-02-11T05:19:24.342Z,4.10
2019-02-11T05:21:53.592Z,4.10
2019-02-11T05:24:22.360Z,4.10
2019-02-11T05:26:51.667Z,4.10
2019-02-11T05:29:20.965Z,4.10
2019-02-11T05:31:50.028Z,4.10
2019-02-11T05:34:18.803Z,4.20
2019-02-11T05:36:47.553Z,4.20
2019-02-11T05:39:16.333Z,4.20
2019-02-11T05:41:45.099Z,4.20
2019-02-11T05:44:14.226Z,4.30
2019-02-11T05:46:42.980Z,4.30
2019-02-11T05:49:12.201Z,4.30
2019-02-11T05:51:41.306Z,4.40
2019-02-11T05:54:10.307Z,4.40
2019-02-11T05:56:39.143Z,4.40
2019-02-11T05:59:07.963Z,4.50
2019-02-11T06:01:36.723Z,4.50
2019-02-11T06:04:05.563Z,4.50
2019-02-11T06:06:34.894Z,4.50
2019-02-11T06:09:05.199Z,4.60
2019-02-11T06:11:34.287Z,4.60
2019-02-11T06:14:03.400Z,4.60
2019-02-11T06:16:32.179Z,4.60
2019-02-11T06:19:00.931Z,4.60
2019-02-11T06:21:29.719Z,4.70
2019-02-11T06:23:58.489Z,4.70
2019-02-11T06:26:27.255Z,4.70
2019-02-11T06:28:56.128Z,4.70
2019-02-11T06:31:24.927Z,4.80
2019-02-11T06:33:53.957Z,4.80
2019-02-11T06:36:22.999Z,4.80
2019-02-11T06:38:52.208Z,4.80
2019-02-11T06:41:21.208Z,4.80
2019-02-11T06:43:49.999Z,4.80
2019-02-11T06:46:18.896Z,4.80
2019-02-11T06:48:48.229Z,4.80
2019-02-11T06:51:17.219Z,4.80
2019-02-11T06:53:46.224Z,4.80
2019-02-11T06:56:15.472Z,4.80
2019-02-11T06:58:44.745Z,4.80
2019-02-11T07:01:13.531Z,4.90
2019-02-11T07:03:42.358Z,4.90
2019-02-11T07:06:11.430Z,5.00
2019-02-11T07:08:40.235Z,4.90
2019-02-11T07:11:09.016Z,4.90
2019-02-11T07:13:38.083Z,5.00
2019-02-11T07:16:06.999Z,5.00
2019-02-11T07:18:37.176Z,5.00
2019-02-11T07:21:06.323Z,5.00
2019-02-11T07:23:35.175Z,5.00
2019-02-11T07:26:04.103Z,5.10
2019-02-11T07:28:33.151Z,5.10
2019-02-11T07:31:02.175Z,5.00
2019-02-11T07:33:33.487Z,4.60
2019-02-11T07:36:02.532Z,5.10
2019-02-11T07:38:31.435Z,5.10
2019-02-11T07:41:00.825Z,5.10
2019-02-11T07:43:43.298Z,5.10
2019-02-11T07:46:17.379Z,5.10
2019-02-11T07:48:46.223Z,5.10
2019-02-11T07:51:14.996Z,5.20
2019-02-11T07:53:44.005Z,5.20
2019-02-11T07:56:13.236Z,5.20
2019-02-11T07:58:42.474Z,5.20
2019-02-11T08:01:11.228Z,5.30
2019-02-11T08:03:40.283Z,5.30
2019-02-11T08:06:09.444Z,5.30
2019-02-11T08:08:38.231Z,5.30
2019-02-11T08:11:07.086Z,5.30
2019-02-11T08:13:36.467Z,5.40
2019-02-11T08:16:05.626Z,5.40
2019-02-11T08:18:34.745Z,5.40
2019-02-11T08:21:03.880Z,5.40
2019-02-11T08:23:33.012Z,5.40
2019-02-11T08:26:01.811Z,5.40
2019-02-11T08:28:30.651Z,5.40
2019-02-11T08:30:59.772Z,5.40
2019-02-11T08:33:30.392Z,5.50
2019-02-11T08:35:59.267Z,5.50
2019-02-11T08:38:28.498Z,5.60
2019-02-11T08:40:58.101Z,5.60
2019-02-11T08:43:26.857Z,5.70
2019-02-11T08:45:55.657Z,5.70
2019-02-11T08:48:24.627Z,5.70
2019-02-11T08:50:53.400Z,5.60
2019-02-11T08:53:22.262Z,5.70
2019-02-11T08:55:51.251Z,5.70
2019-02-11T08:58:20.319Z,5.80
2019-02-11T09:00:49.119Z,5.80
2019-02-11T09:03:18.307Z,5.80
2019-02-11T09:05:47.183Z,5.80
2019-02-11T09:08:16.124Z,5.90
2019-02-11T09:10:45.170Z,5.90
2019-02-11T09:13:14.079Z,5.90
2019-02-11T09:15:43.338Z,6.00
2019-02-11T09:18:12.095Z,6.00
2019-02-11T09:20:42.135Z,6.00
2019-02-11T09:23:11.098Z,6.10
2019-02-11T09:25:40.011Z,6.00
2019-02-11T09:28:09.139Z,6.10
2019-02-11T09:30:39.870Z,6.00
2019-02-11T09:33:08.795Z,6.10
2019-02-11T09:35:38.044Z,6.20
2019-02-11T09:38:07.135Z,6.10
2019-02-11T09:40:36.229Z,6.20
2019-02-11T09:43:05.086Z,6.20
2019-02-11T09:45:33.930Z,6.20
2019-02-11T09:48:02.997Z,6.20
2019-02-11T09:50:43.555Z,6.20
2019-02-11T09:53:12.397Z,6.20
2019-02-11T09:55:41.160Z,6.10
2019-02-11T09:58:10.063Z,6.80
2019-02-11T10:00:39.387Z,6.30
2019-02-11T10:03:08.308Z,6.20
2019-02-11T10:05:37.321Z,6.20
2019-02-11T10:08:06.160Z,6.20
2019-02-11T10:10:35.152Z,6.30
2019-02-11T10:13:04.035Z,6.30
2019-02-11T10:15:33.072Z,6.30
2019-02-11T10:18:02.151Z,6.40
2019-02-11T10:20:31.227Z,6.40
2019-02-11T10:23:00.101Z,7.30
2019-02-11T10:25:29.374Z,6.30
2019-02-11T10:28:01.159Z,6.30
2019-02-11T10:30:30.312Z,6.20
2019-02-11T10:32:59.408Z,6.30
2019-02-11T10:35:28.339Z,6.30
2019-02-11T10:37:57.299Z,6.40
2019-02-11T10:40:26.170Z,6.30
2019-02-11T10:42:55.250Z,6.40
2019-02-11T10:45:24.183Z,6.30
2019-02-11T10:47:53.111Z,6.30
2019-02-11T10:50:22.460Z,6.30
2019-02-11T10:52:51.311Z,6.30
2019-02-11T10:55:20.246Z,6.20
2019-02-11T10:57:49.125Z,6.20
2019-02-11T11:00:19.866Z,6.20
2019-02-11T11:02:48.698Z,6.20
2019-02-11T11:05:17.603Z,6.20
2019-02-11T11:07:46.703Z,6.20
2019-02-11T11:10:19.024Z,6.20
2019-02-11T11:12:48.218Z,6.30
2019-02-11T11:15:17.751Z,6.30
2019-02-11T11:17:46.847Z,6.40
2019-02-11T11:20:16.218Z,6.40
2019-02-11T11:22:45.214Z,6.40
2019-02-11T11:25:18.239Z,6.50
2019-02-11T11:27:47.177Z,6.50
2019-02-11T11:30:16.432Z,6.50
2019-02-11T11:32:46.014Z,6.50
2019-02-11T11:35:15.350Z,6.50
2019-02-11T11:37:44.538Z,6.50
2019-02-11T11:40:15.313Z,6.50
2019-02-11T11:42:44.188Z,6.50
2019-02-11T11:45:15.020Z,6.50
2019-02-11T11:47:43.882Z,6.50
2019-02-11T11:50:12.962Z,6.50
2019-02-11T11:52:42.125Z,6.60
2019-02-11T11:55:12.354Z,6.60
2019-02-11T11:57:41.754Z,6.50
2019-02-11T12:00:29.939Z,6.50
2019-02-11T12:03:02.712Z,6.50
2019-02-11T12:05:29.515Z,6.60
2019-02-11T12:07:59.049Z,6.60
2019-02-11T12:10:28.115Z,6.60
2019-02-11T12:12:57.459Z,6.60
2019-02-11T12:15:27.169Z,6.60
2019-02-11T12:17:56.807Z,6.60
2019-02-11T12:20:25.958Z,6.70
2019-02-11T12:22:54.874Z,6.70
2019-02-11T12:25:23.889Z,6.70
2019-02-11T12:27:52.675Z,6.60
2019-02-11T12:30:25.471Z,6.60
2019-02-11T12:32:55.861Z,6.60
2019-02-11T12:35:25.364Z,6.60
2019-02-11T12:37:54.535Z,6.60
2019-02-11T12:40:23.729Z,6.70
2019-02-11T12:42:53.905Z,6.70
2019-02-11T12:45:23.428Z,6.70
2019-02-11T12:47:52.593Z,6.70
2019-02-11T12:50:21.566Z,6.80
2019-02-11T12:52:50.377Z,6.90
2019-02-11T12:55:19.314Z,6.90
2019-02-11T12:57:48.459Z,6.90
2019-02-11T13:00:19.227Z,7.00
2019-02-11T13:02:48.591Z,7.00
2019-02-11T13:05:21.800Z,7.00
2019-02-11T13:07:48.478Z,7.20
2019-02-11T13:10:17.813Z,7.10
2019-02-11T13:12:46.758Z,7.20
2019-02-11T13:15:41.787Z,7.20
2019-02-11T13:17:46.691Z,7.00
2019-02-11T13:20:15.718Z,7.00
2019-02-11T13:22:44.594Z,7.10
2019-02-11T13:25:14.283Z,7.10
2019-02-11T13:27:43.037Z,7.20
2019-02-11T13:30:14.458Z,7.20
2019-02-11T13:32:43.419Z,7.20
2019-02-11T13:35:12.403Z,7.10
2019-02-11T13:37:41.357Z,7.10
2019-02-11T13:40:10.531Z,7.20
2019-02-11T13:42:39.789Z,7.20
2019-02-11T13:45:11.998Z,7.20
2019-02-11T13:47:53.218Z,7.20
2019-02-11T13:50:14.472Z,7.20
2019-02-11T13:52:43.755Z,7.20
2019-02-11T13:55:13.418Z,7.30
2019-02-11T13:57:42.825Z,7.30
2019-02-11T14:00:17.548Z,7.30
2019-02-11T14:02:51.472Z,7.40
2019-02-11T14:05:20.897Z,7.40
2019-02-11T14:07:49.930Z,7.40
2019-02-11T14:10:19.787Z,7.40
2019-02-11T14:12:49.542Z,7.40
2019-02-11T14:15:20.445Z,7.30
2019-02-11T14:17:49.368Z,7.30
2019-02-11T14:20:23.134Z,7.40
2019-02-11T14:22:52.270Z,7.40
2019-02-11T14:25:39.468Z,7.40
2019-02-11T14:27:52.178Z,7.50
2019-02-11T14:30:21.904Z,7.60
2019-02-11T14:32:51.300Z,7.60
2019-02-11T14:35:20.530Z,7.60
2019-02-11T14:37:49.523Z,7.50
2019-02-11T14:40:18.661Z,7.50
2019-02-11T14:42:47.604Z,7.50
2019-02-11T14:45:16.640Z,7.50
2019-02-11T14:47:45.566Z,7.50
2019-02-11T14:50:14.531Z,7.50
2019-02-11T14:52:43.475Z,7.50
2019-02-11T14:55:12.863Z,7.40
2019-02-11T14:57:41.776Z,7.40
2019-02-11T15:00:16.606Z,7.40
2019-02-11T15:02:45.543Z,7.30
2019-02-11T15:05:14.701Z,7.30
2019-02-11T15:07:43.580Z,7.30
2019-02-11T15:10:13.979Z,7.30
2019-02-11T15:12:43.447Z,7.40
2019-02-11T15:15:12.422Z,7.50
2019-02-11T15:17:41.610Z,7.40
2019-02-11T15:20:12.464Z,7.30
2019-02-11T15:22:41.496Z,7.80
2019-02-11T15:25:12.739Z,7.10
2019-02-11T15:27:42.185Z,7.00
2019-02-11T15:30:16.509Z,6.90
2019-02-11T15:32:45.783Z,6.90
2019-02-11T15:35:14.719Z,6.90
2019-02-11T15:37:43.580Z,6.80
2019-02-11T15:40:14.297Z,6.80
2019-02-11T15:42:43.406Z,6.80
2019-02-11T15:45:13.194Z,6.70
2019-02-11T15:47:42.042Z,6.70
2019-02-11T15:50:12.049Z,6.60
2019-02-11T15:52:41.409Z,6.60
2019-02-11T15:55:12.965Z,6.50
2019-02-11T15:57:42.158Z,6.50
2019-02-11T16:00:14.030Z,6.40
2019-02-11T16:02:43.051Z,6.40
2019-02-11T16:05:15.908Z,6.50
2019-02-11T16:07:42.939Z,6.40
2019-02-11T16:10:14.264Z,6.40
2019-02-11T16:12:43.584Z,6.40
2019-02-11T16:15:12.884Z,6.30
2019-02-11T16:17:42.344Z,6.30
2019-02-11T16:20:11.476Z,6.30
2019-02-11T16:22:42.147Z,6.20
2019-02-11T16:25:12.051Z,6.20
2019-02-11T16:27:41.123Z,6.30
2019-02-11T16:30:12.916Z,6.20
2019-02-11T16:32:42.100Z,6.30
2019-02-11T16:35:11.730Z,6.20
2019-02-11T16:37:40.904Z,6.30
2019-02-11T16:40:12.469Z,6.30
2019-02-11T16:42:41.372Z,6.30
2019-02-11T16:45:10.427Z,6.30
2019-02-11T16:47:39.942Z,6.20
2019-02-11T16:50:09.323Z,6.20
2019-02-11T16:52:38.437Z,6.20
2019-02-11T16:55:07.987Z,6.20
2019-02-11T16:57:38.024Z,6.20
2019-02-11T17:00:08.987Z,6.20
2019-02-11T17:02:38.439Z,6.20
2019-02-11T17:05:08.304Z,6.10
2019-02-11T17:07:41.892Z,6.20
2019-02-11T17:10:09.447Z,6.20
2019-02-11T17:12:38.411Z,6.10
2019-02-11T17:15:09.497Z,6.10
2019-02-11T17:17:38.631Z,6.00
2019-02-11T17:20:08.633Z,6.00
2019-02-11T17:22:37.459Z,6.00
2019-02-11T17:25:07.257Z,5.90
2019-02-11T17:27:36.507Z,5.90
2019-02-11T17:30:06.988Z,5.80
2019-02-11T17:32:36.316Z,5.80
2019-02-11T17:35:06.004Z,5.80
2019-02-11T17:37:34.900Z,5.80
2019-02-11T17:40:04.443Z,5.80
2019-02-11T17:42:33.428Z,5.80
2019-02-11T17:45:02.461Z,5.80
2019-02-11T17:47:31.299Z,5.80
2019-02-11T17:50:00.448Z,5.80
2019-02-11T17:52:29.635Z,5.80
2019-02-11T17:54:58.600Z,5.80
2019-02-11T17:57:27.408Z,5.70
2019-02-11T17:59:56.555Z,5.70
2019-02-11T18:02:25.332Z,5.70
2019-02-11T18:04:54.127Z,5.80
2019-02-11T18:07:23.175Z,5.80
2019-02-11T18:09:52.334Z,5.80
2019-02-11T18:12:21.143Z,5.90
2019-02-11T18:14:49.931Z,5.90
2019-02-11T18:17:18.984Z,5.90
2019-02-11T18:19:47.824Z,5.90
2019-02-11T18:22:16.925Z,6.00
2019-02-11T18:24:46.108Z,6.00
2019-02-11T18:27:15.201Z,5.90
2019-02-11T18:29:43.975Z,6.00
2019-02-11T18:32:12.835Z,6.00
2019-02-11T18:34:42.116Z,6.00
2019-02-11T18:37:10.982Z,6.00
2019-02-11T18:39:40.036Z,6.00
2019-02-11T18:42:09.278Z,6.00
2019-02-11T18:44:38.324Z,6.00
2019-02-11T18:47:07.416Z,6.00
2019-02-11T18:49:36.182Z,6.00
2019-02-11T18:52:05.112Z,6.00
2019-02-11T18:54:33.965Z,6.00
2019-02-11T18:57:03.454Z,6.00
2019-02-11T18:59:32.464Z,5.90
2019-02-11T19:02:01.305Z,5.90
2019-02-11T19:04:30.389Z,5.80
2019-02-11T19:06:59.290Z,5.80
2019-02-11T19:09:28.313Z,5.80
2019-02-11T19:11:57.196Z,5.80
2019-02-11T19:14:26.359Z,5.80
2019-02-11T19:16:55.387Z,5.80
2019-02-11T19:19:24.171Z,5.80
2019-02-11T19:21:53.192Z,5.70
2019-02-11T19:24:22.185Z,5.70
2019-02-11T19:26:50.960Z,5.60
2019-02-11T19:29:19.977Z,5.60
2019-02-11T19:31:49.454Z,5.60
2019-02-11T19:34:18.291Z,5.60
2019-02-11T19:36:47.390Z,5.50
2019-02-11T19:39:16.450Z,5.50
2019-02-11T19:41:45.531Z,5.50
2019-02-11T19:44:14.309Z,5.50
2019-02-11T19:46:43.092Z,5.50
2019-02-11T19:49:11.935Z,5.50
2019-02-11T19:51:40.943Z,5.50
2019-02-11T19:54:09.812Z,5.50
2019-02-11T19:56:38.896Z,5.50
2019-02-11T19:59:07.659Z,5.50
2019-02-11T20:01:36.672Z,5.50
2019-02-11T20:04:07.559Z,5.50
2019-02-11T20:06:36.025Z,5.40
2019-02-11T20:09:05.689Z,5.40
2019-02-11T20:11:34.610Z,5.40
2019-02-11T20:14:03.527Z,5.40
2019-02-11T20:16:32.457Z,5.40
2019-02-11T20:19:01.483Z,5.40
2019-02-11T20:21:32.692Z,5.40
2019-02-11T20:24:01.597Z,5.30
2019-02-11T20:26:30.624Z,5.30
2019-02-11T20:28:59.549Z,5.30
2019-02-11T20:31:28.334Z,5.30
2019-02-11T20:33:57.539Z,5.30
2019-02-11T20:36:26.538Z,5.30
2019-02-11T20:38:55.300Z,5.30
2019-02-11T20:41:24.255Z,5.20
2019-02-11T20:43:53.295Z,5.20
2019-02-11T20:46:22.451Z,5.20
2019-02-11T20:48:51.475Z,5.20
2019-02-11T20:51:20.636Z,5.20
2019-02-11T20:53:49.661Z,5.20
2019-02-11T20:56:18.516Z,5.20
2019-02-11T20:58:47.764Z,5.20
2019-02-11T21:01:16.704Z,5.20
2019-02-11T21:03:49.424Z,5.10
2019-02-11T21:06:18.303Z,5.10
2019-02-11T21:08:47.186Z,5.10
2019-02-11T21:11:15.973Z,5.10
2019-02-11T21:13:45.011Z,5.10
2019-02-11T21:16:14.259Z,5.00
2019-02-11T21:18:43.553Z,5.00
2019-02-11T21:21:12.476Z,5.00
2019-02-11T21:23:41.719Z,5.00
2019-02-11T21:26:10.771Z,5.00
2019-02-11T21:28:40.066Z,4.90
2019-02-11T21:31:09.183Z,4.90
2019-02-11T21:33:38.175Z,4.90
2019-02-11T21:36:07.056Z,4.90
2019-02-11T21:38:35.811Z,4.80
2019-02-11T21:41:04.968Z,5.20
2019-02-11T21:43:34.236Z,4.80
2019-02-11T21:46:03.102Z,4.70
2019-02-11T21:48:32.247Z,4.60
2019-02-11T21:51:01.132Z,4.60
2019-02-11T21:53:30.399Z,4.50
2019-02-11T21:55:59.777Z,4.40
2019-02-11T21:58:28.742Z,4.50
2019-02-11T22:01:02.344Z,4.50
2019-02-11T22:03:30.272Z,4.40
2019-02-11T22:05:59.196Z,4.40
2019-02-11T22:08:27.971Z,4.40
2019-02-11T22:10:56.810Z,4.40
2019-02-11T22:13:25.739Z,4.40
2019-02-11T22:15:54.759Z,4.30
2019-02-11T22:18:23.556Z,4.30
2019-02-11T22:20:52.693Z,4.30
2019-02-11T22:23:21.715Z,4.30
2019-02-11T22:25:50.488Z,4.30
2019-02-11T22:28:19.508Z,4.20
2019-02-11T22:30:48.584Z,4.10
2019-02-11T22:33:17.625Z,4.10
2019-02-11T22:35:46.607Z,4.10
2019-02-11T22:38:15.599Z,4.10
2019-02-11T22:40:44.876Z,4.10
2019-02-11T22:43:13.807Z,4.00
2019-02-11T22:45:42.619Z,4.00
2019-02-11T22:48:11.616Z,4.00
2019-02-11T22:50:43.211Z,3.90
2019-02-11T22:53:11.595Z,3.90
2019-02-11T22:55:40.606Z,4.00
2019-02-11T22:58:09.623Z,3.90
2019-02-11T23:00:47.338Z,3.90
2019-02-11T23:03:16.636Z,3.90
2019-02-11T23:05:45.566Z,3.80
2019-02-11T23:08:14.444Z,3.80
2019-02-11T23:10:43.342Z,3.80
2019-02-11T23:13:12.176Z,3.80
2019-02-11T23:15:41.165Z,3.70
2019-02-11T23:18:10.319Z,3.60
2019-02-11T23:20:39.100Z,3.60
2019-02-11T23:23:07.876Z,3.60
2019-02-11T23:25:36.803Z,3.60
2019-02-11T23:28:05.705Z,3.50
2019-02-11T23:30:34.808Z,3.50
2019-02-11T23:33:03.561Z,3.50
2019-02-11T23:35:32.650Z,3.50
2019-02-11T23:38:01.496Z,3.50
2019-02-11T23:40:30.584Z,3.50
2019-02-11T23:42:59.948Z,3.50
2019-02-11T23:45:29.123Z,3.50
2019-02-11T23:47:58.116Z,3.50
2019-02-11T23:50:27.289Z,3.50
2019-02-11T23:52:56.206Z,3.90
2019-02-11T23:55:25.447Z,3.50
2019-02-11T23:57:54.209Z,3.50
